METAR Data
IDs: Format: Raw Decoded Include TAF

Data at: 0735 UTC 23 Feb 2019

KDWH 230717Z AUTO 14003KT 1 3/4SM BR SCT006 BKN009 OVC013 17/17 A2984 RMK AO2 CIG 007V011 T01720172
KDWH 230653Z AUTO 00000KT 1 3/4SM BR SCT002 BKN014 OVC018 18/18 A2985 RMK AO2 SLP106 T01780178
KDWH 230621Z AUTO 00000KT 1 3/4SM BR BKN003 OVC011 17/17 A2985 RMK AO2 T01720172
KDWH 230610Z AUTO 00000KT 2SM BR OVC003 17/17 A2986 RMK AO2 T01720172
KDWH 230553Z AUTO 00000KT 1 1/2SM BR OVC003 17/17 A2986 RMK AO2 SLP110 T01720172 10189 20172 402000094 58007
KDWH 230506Z AUTO 00000KT 1SM BR OVC003 17/17 A2987 RMK AO2 T01720172
KDWH 230453Z AUTO 00000KT 3/4SM BR OVC003 17/17 A2987 RMK AO2 SLP115 T01720172
KDWH 230400Z AUTO 00000KT 1/2SM FG VV003 17/17 A2988 RMK AO2 T01720172
KDWH 230353Z AUTO 00000KT 1/4SM FG VV003 17/17 A2988 RMK AO2 SLP116 T01720172
KDWH 230320Z 00000KT 1/2SM FG VV003 17/17 A2989 RMK AO2 T01720172
KDWH 230253Z 00000KT 1/4SM FG VV002 17/17 A2989 RMK AO2 SLP119 T01720172 53005
KDWH 230153Z 31003KT 1/4SM FG VV002 18/18 A2989 RMK AO2 SLP119 T01830183
KDWH 230131Z 00000KT 1/4SM FG VV002 18/18 A2988 RMK AO2 T01830183
KDWH 230117Z 00000KT 1/2SM FG VV002 18/18 A2988 RMK AO2 T01830183
KDWH 230100Z 00000KT 1 3/4SM BR OVC003 18/18 A2987 RMK AO2 T01830183
KDWH 230053Z 03003KT 2SM BR OVC003 18/18 A2987 RMK AO2 SLP113 T01830183
KDWH 230050Z 00000KT 2SM BR OVC003 18/18 A2987 RMK AO2
KDWH 230034Z 02003KT 3SM BR OVC004 19/18 A2987 RMK AO2 T01890183
KDWH 222353Z 01004KT 2 1/2SM BR OVC006 19/18 A2987 RMK AO2 CIG 005V008 SLP114 T01890183 10200 20156 52000
KDWH 222350Z 02004KT 2 1/2SM BR OVC006 19/18 A2987 RMK AO2
KDWH 222253Z VRB04KT 4SM BR OVC007 19/18 A2987 RMK AO2 SLP113 T01940183
KDWH 222153Z 03003KT 5SM BR OVC008 20/18 A2987 RMK AO2 SLP113 T02000178
KDWH 222053Z 00000KT 5SM BR OVC006 19/17 A2988 RMK AO2 SLP117 T01890172 56025
KDWH 222011Z 13004KT 5SM BR OVC005 18/17 A2989 RMK AO2 T01830172
KDWH 221953Z 00000KT 3SM BR OVC004 18/17 A2990 RMK AO2 SLP123 T01780172
KDWH 221856Z VRB04KT 3SM BR OVC004 17/16 A2992 RMK AO2 T01720161
KDWH 221853Z 12005KT 2SM BR OVC004 17/16 A2993 RMK AO2 SLP132 T01720161
KDWH 221802Z 10006KT 2SM BR OVC004 16/15 A2995 RMK AO2 T01560150
KDWH 221800Z COR 10006KT 2SM BR OVC004 16/15 A2995 RMK AO2 T01560150
KDWH 221753Z 12005KT 2SM BR OVC004 15/15 A2996 RMK AO2 SLP142 T01500150 10156 20100 58006
KDWH 221653Z 10005KT 1SM BR OVC003 14/14 A2997 RMK AO2 SLP147 T01390139
KDWH 221553Z 07006KT 3/4SM BR OVC002 12/12 A2997 RMK AO2 SLP146 T01220122
KDWH 221453Z 09007KT 3/4SM BR OVC002 11/11 A2997 RMK AO2 SLP150 T01110111 53004
KDWH 221353Z 08004KT 1/2SM FG VV003 10/10 A2997 RMK AO2 SLP147 T01000100
KDWH 221331Z 07006KT 3/4SM BR OVC002 10/10 A2997 RMK AO2 T01000100
KDWH 221253Z 04006KT 2SM BR OVC002 10/10 A2996 RMK AO2 SLP146 T01000100
KDWH 221218Z AUTO 06007KT 6SM BR OVC003 10/09 A2995 RMK AO2 T01000094
KDWH 221153Z AUTO 05007KT 7SM OVC004 10/09 A2996 RMK AO2 RAE06 SLP145 P0000 60003 70011 T01000094 10100 20094 55002
KDWH 221053Z AUTO 03006KT 6SM RA BR OVC007 09/09 A2996 RMK AO2 RAB31 SLP144 P0002 T00940094
KDWH 221035Z AUTO 04006KT 10SM -RA OVC006 09/09 A2996 RMK AO2 RAB31 CIG 003V009 P0000 T00940094
KDWH 220953Z AUTO 02004KT 7SM OVC003 09/09 A2996 RMK AO2 RAB11E51 SLP145 P0001 T00940094
KDWH 220935Z AUTO 01006KT 3SM -RA BR OVC002 09/09 A2996 RMK AO2 RAB11 P0000 T00940094
KDWH 220903Z AUTO 02006KT 2 1/2SM BR OVC003 09/09 A2997 RMK AO2 T00940094
KDWH 220853Z AUTO 02006KT 3SM BR OVC003 09/09 A2997 RMK AO2 SLP147 60000 T00940094 50001
KDWH 220753Z AUTO 02006KT 3SM BR OVC003 09/09 A2997 RMK AO2 RAB43E53 SLP149 P0000 T00940094
KDWH 220706Z AUTO 01006KT 3SM BR OVC003 09/09 A2998 RMK AO2 T00940094
KDWH 220653Z AUTO 01006KT 2 1/2SM BR OVC003 09/09 A2998 RMK AO2 SLP150 T00940094
KDWH 220553Z AUTO 02007KT 2SM BR OVC002 10/10 A2997 RMK AO2 SLP147 T01000100 10106 20100 401170100 53009
KDWH 220538Z AUTO 04007KT 2SM BR OVC002 10/10 A2996 RMK AO2 T01000100
KDWH 220524Z AUTO 04006KT 1 3/4SM BR OVC002 10/10 A2996 RMK AO2 T01000100
KDWH 220453Z AUTO 03004KT 2SM BR OVC003 10/10 A2996 RMK AO2 SLP144 T01000100
KDWH 220428Z AUTO 05007KT 2 1/2SM BR OVC003 10/10 A2995 RMK AO2 T01000100
KDWH 220353Z AUTO 06005KT 3SM BR OVC003 10/10 A2995 RMK AO2 SLP140 T01000100
KDWH 220339Z AUTO 05007KT 3SM BR OVC003 10/10 A2994 RMK AO2 T01000100
KDWH 220326Z 05006KT 2 1/2SM BR OVC003 10/10 A2994 RMK AO2 T01000100
KDWH 220253Z 04006KT 3SM BR OVC003 10/09 A2994 RMK AO2 SLP138 T01000094 53009
KDWH 220225Z 05006KT 4SM BR OVC003 10/09 A2993 RMK AO2 T01000094
KDWH 220153Z 03007KT 5SM BR OVC004 10/09 A2992 RMK AO2 SLP131 T01000094
KDWH 220053Z 05009KT 6SM BR OVC004 10/10 A2992 RMK AO2 SLP130 T01000100
KDWH 220044Z 04008KT 6SM BR OVC004 10/10 A2992 RMK AO2 T01000100
KDWH 220000Z 03010KT 4SM BR OVC005 10/10 A2991 RMK AO2 T01000100
KDWH 212353Z 04008KT 3SM BR OVC004 11/10 A2991 RMK AO2 RAE2255 SLP128 P0000 60002 T01060100 10117 20106 51005
KDWH 212253Z 03008KT 3SM -RA BR OVC004 11/10 A2991 RMK AO2 RAB06 SLP128 P0000 T01060100
KDWH 212227Z 02007KT 3SM -RA BR OVC004 11/11 A2991 RMK AO2 RAB06 P0000 T01110111
KDWH 212153Z 03008KT 2 1/2SM BR OVC006 11/11 A2990 RMK AO2 RAB27E39 CIG 004V009 SLP124 P0000 T01110111
KDWH 212112Z 03008KT 2 1/2SM BR OVC005 12/11 A2989 RMK AO2 T01170111
KDWH 212053Z 03006KT 5SM BR OVC005 12/11 A2990 RMK AO2 RAE1959 CIG 004V008 SLP122 P0000 60002 T01170111 56012
KDWH 212026Z 05009KT 4SM BR OVC005 12/11 A2990 RMK AO2 RAE1959 CIG 004V010 P0000 T01170111
KDWH 212013Z 03006KT 2 1/2SM BR OVC005 11/11 A2990 RMK AO2 RAE1959 CIG 004V009 P0000 T01110111
KDWH 211953Z 02010KT 3SM -RA BR OVC005 11/11 A2991 RMK AO2 RAE02B32 CIG 004V010 SLP128 P0000 T01110106
KDWH 211948Z 02009KT 3SM -RA BR OVC005 11/11 A2991 RMK AO2 RAE02B32 CIG 004V010 P0000